Time;durP1;ratioP1;P1;durP2;ratioP2;P2;SDS_P1;SDS_P2;PMS_P1;PMS_P2;Temp;Humidity;BMP_temperature;BMP_pressure;BME280_temperature;BME280_humidity;BME280_pressure;Samples;Min_cycle;Max_cycle;Signal;HPM_P1;HPM_P2
2024/01/18 00:01:13;;;;;;;4.70;1.05;;;10.30;99.90;;;;;;4999663;28;20075;-81
2024/01/18 00:03:39;;;;;;;0.20;0.20;;;10.30;99.90;;;;;;5005048;28;20042;-84
2024/01/18 00:06:05;;;;;;;0.10;0.10;;;10.30;99.90;;;;;;5003118;28;20037;-82
2024/01/18 00:08:31;;;;;;;0.10;0.10;;;10.30;99.90;;;;;;5007078;28;20034;-82
2024/01/18 00:10:57;;;;;;;1.17;1.08;;;10.30;99.90;;;;;;5004917;28;20875;-84
2024/01/18 00:13:23;;;;;;;0.15;0.15;;;10.30;99.90;;;;;;5005170;28;20216;-85
2024/01/18 00:15:48;;;;;;;0.10;0.10;;;10.30;99.90;;;;;;5001665;28;20122;-84
2024/01/18 00:18:14;;;;;;;0.00;0.00;;;10.20;99.90;;;;;;5004828;28;20394;-84
2024/01/18 00:20:40;;;;;;;0.10;0.10;;;10.30;99.90;;;;;;5003488;28;20234;-86
2024/01/18 00:23:05;;;;;;;0.10;0.10;;;10.20;99.90;;;;;;5006299;28;20721;-83
2024/01/18 00:25:31;;;;;;;0.10;0.10;;;10.30;99.90;;;;;;5003110;28;20029;-84
2024/01/18 00:27:57;;;;;;;0.30;0.30;;;10.20;99.90;;;;;;5007042;28;20041;-83
2024/01/18 00:30:22;;;;;;;0.57;0.57;;;10.20;99.90;;;;;;5004428;28;20042;-84
2024/01/18 00:32:48;;;;;;;0.00;0.00;;;10.30;99.90;;;;;;5007441;28;20037;-84
2024/01/18 00:35:14;;;;;;;0.00;0.00;;;10.30;99.90;;;;;;5003530;28;20026;-85
2024/01/18 00:37:39;;;;;;;0.10;0.10;;;10.20;99.90;;;;;;5008980;28;20029;-83
2024/01/18 00:40:06;;;;;;;0.00;0.00;;;10.20;99.90;;;;;;4982077;28;20060;-85
2024/01/18 00:42:32;;;;;;;;;;;10.20;99.90;;;;;;5002464;28;20041;-84
2024/01/18 00:44:57;;;;;;;0.10;0.10;;;10.20;99.90;;;;;;5008503;28;19984;-85
2024/01/18 00:47:23;;;;;;;0.00;0.00;;;10.20;99.90;;;;;;5002799;28;20029;-83
2024/01/18 00:49:49;;;;;;;0.27;0.27;;;10.20;99.90;;;;;;5003134;28;20034;-84
2024/01/18 00:52:15;;;;;;;0.10;0.10;;;10.20;99.90;;;;;;5001171;28;20034;-81
2024/01/18 00:54:40;;;;;;;0.10;0.10;;;10.20;99.90;;;;;;5003139;28;20025;-83
2024/01/18 00:57:06;;;;;;;0.00;0.00;;;10.20;99.90;;;;;;5003471;28;20034;-83
2024/01/18 00:59:32;;;;;;;0.00;0.00;;;10.20;99.90;;;;;;5001819;28;20030;-83
2024/01/18 01:01:57;;;;;;;0.00;0.00;;;10.20;99.90;;;;;;5001031;28;20025;-84
2024/01/18 01:04:23;;;;;;;0.10;0.10;;;10.30;99.90;;;;;;5004922;28;20029;-83
2024/01/18 01:06:49;;;;;;;0.10;0.10;;;10.20;99.90;;;;;;5002333;28;20108;-84
2024/01/18 01:09:14;;;;;;;0.08;0.08;;;10.20;99.90;;;;;;5004751;28;20091;-84
2024/01/18 01:11:40;;;;;;;0.00;0.00;;;10.20;99.90;;;;;;4998782;28;20092;-82
2024/01/18 01:14:06;;;;;;;0.00;0.00;;;10.20;99.90;;;;;;5002737;28;20029;-83
2024/01/18 01:16:31;;;;;;;0.10;0.10;;;10.20;99.90;;;;;;5002453;28;20060;-84
2024/01/18 01:18:57;;;;;;;0.00;0.00;;;10.20;99.90;;;;;;5002927;28;20091;-83
2024/01/18 01:21:23;;;;;;;0.10;0.10;;;10.20;99.90;;;;;;5002139;28;20128;-84
2024/01/18 01:23:51;;;;;;;0.10;0.10;;;10.20;99.90;;;;;;5004670;28;20448;-84
2024/01/18 01:26:17;;;;;;;0.00;0.00;;;10.10;99.90;;;;;;5006011;28;20029;-84
2024/01/18 01:28:43;;;;;;;0.10;0.10;;;10.10;99.90;;;;;;5008036;28;20026;-85
2024/01/18 01:31:09;;;;;;;0.00;0.00;;;10.20;99.90;;;;;;5006109;28;20018;-84
2024/01/18 01:33:36;;;;;;;0.10;0.10;;;10.20;99.90;;;;;;5009696;28;20492;-84
2024/01/18 01:36:02;;;;;;;0.00;0.00;;;10.30;99.90;;;;;;5003080;28;20533;-83
2024/01/18 01:38:28;;;;;;;1.05;0.80;;;10.20;99.90;;;;;;4995953;28;20180;-84
2024/01/18 01:40:54;;;;;;;0.10;0.10;;;10.30;99.90;;;;;;5002524;28;20564;-85
2024/01/18 01:43:22;;;;;;;0.00;0.00;;;10.20;99.90;;;;;;4980948;28;20217;-84
2024/01/18 01:45:48;;;;;;;0.10;0.10;;;10.20;99.90;;;;;;4977255;28;20064;-82
2024/01/18 01:48:14;;;;;;;0.00;0.00;;;10.10;99.90;;;;;;4982104;28;20025;-84
2024/01/18 01:50:40;;;;;;;0.00;0.00;;;10.10;99.90;;;;;;5010048;28;20087;-85
2024/01/18 01:53:07;;;;;;;0.10;0.10;;;10.00;99.90;;;;;;5001674;28;20017;-83
2024/01/18 01:55:33;;;;;;;0.00;0.00;;;10.10;99.90;;;;;;4999610;28;20026;-85
2024/01/18 01:58:00;;;;;;;0.10;0.10;;;10.00;99.90;;;;;;5002526;28;20069;-84
2024/01/18 02:00:25;;;;;;;0.03;0.03;;;10.00;99.90;;;;;;4995023;28;20180;-82
2024/01/18 02:02:52;;;;;;;0.00;0.00;;;10.00;99.90;;;;;;5002338;28;20109;-82
2024/01/18 02:05:19;;;;;;;0.00;0.00;;;9.90;99.90;;;;;;5004702;28;20037;-83
2024/01/18 02:07:45;;;;;;;1.55;1.45;;;9.90;99.90;;;;;;5000092;28;20049;-85
2024/01/18 02:10:11;;;;;;;0.00;0.00;;;10.00;99.90;;;;;;5005411;28;20065;-82
2024/01/18 02:12:38;;;;;;;0.10;0.10;;;9.90;99.90;;;;;;5008842;28;20049;-84
2024/01/18 02:15:05;;;;;;;0.00;0.00;;;10.00;99.90;;;;;;5002258;28;20076;-85
2024/01/18 02:17:31;;;;;;;0.00;0.00;;;10.00;99.90;;;;;;5003050;28;20056;-83
2024/01/18 02:19:56;;;;;;;0.10;0.10;;;10.10;99.90;;;;;;5005512;28;20129;-86
2024/01/18 02:22:26;;;;;;;0.00;0.00;;;10.00;99.90;;;;;;5001187;28;20070;-83
2024/01/18 02:24:58;;;;;;;0.10;0.10;;;10.00;99.90;;;;;;5001493;28;20021;-82
2024/01/18 02:27:24;;;;;;;0.10;0.10;;;10.00;99.90;;;;;;5000954;28;20444;-84
2024/01/18 02:29:51;;;;;;;0.10;0.10;;;10.00;99.90;;;;;;5004897;28;20036;-84
2024/01/18 02:32:17;;;;;;;0.00;0.00;;;10.00;99.90;;;;;;5004410;28;20212;-84
2024/01/18 02:34:43;;;;;;;0.10;0.10;;;10.00;99.90;;;;;;5001561;28;20085;-86
2024/01/18 02:37:10;;;;;;;0.00;0.00;;;10.10;99.90;;;;;;4996171;28;20129;-84
2024/01/18 02:39:36;;;;;;;0.40;0.40;;;10.10;99.90;;;;;;5003797;28;20856;-83
2024/01/18 02:42:03;;;;;;;0.20;0.20;;;10.10;99.90;;;;;;5003351;28;20022;-83
2024/01/18 02:44:29;;;;;;;0.05;0.05;;;10.10;99.90;;;;;;5004019;28;20053;-84
2024/01/18 02:46:54;;;;;;;0.00;0.00;;;10.10;99.90;;;;;;5001138;28;20476;-83
2024/01/18 02:49:20;;;;;;;0.00;0.00;;;10.10;99.90;;;;;;5001476;28;20113;-84
2024/01/18 02:51:47;;;;;;;0.00;0.00;;;10.10;99.90;;;;;;5004887;28;20025;-82
2024/01/18 02:54:12;;;;;;;0.00;0.00;;;10.20;99.90;;;;;;4997256;28;20105;-84
2024/01/18 02:56:38;;;;;;;0.00;0.00;;;10.20;99.90;;;;;;5002170;28;20071;-82
2024/01/18 02:59:04;;;;;;;0.00;0.00;;;10.20;99.90;;;;;;5009346;28;20117;-83
2024/01/18 03:01:30;;;;;;;0.00;0.00;;;10.20;99.90;;;;;;4984929;28;20061;-82
2024/01/18 03:03:56;;;;;;;0.10;0.10;;;10.20;99.90;;;;;;5001548;28;20037;-81
2024/01/18 03:06:22;;;;;;;0.00;0.00;;;10.20;99.90;;;;;;4999674;28;20026;-83
2024/01/18 03:08:49;;;;;;;0.10;0.10;;;10.20;99.90;;;;;;4998400;28;20053;-84
2024/01/18 03:11:15;;;;;;;0.10;0.10;;;10.20;99.90;;;;;;5006259;28;20490;-82
2024/01/18 03:13:40;;;;;;;0.07;0.07;;;10.20;99.90;;;;;;5003297;28;20062;-83
2024/01/18 03:16:10;;;;;;;0.00;0.00;;;10.10;99.90;;;;;;5006844;28;20567;-82
2024/01/18 03:18:36;;;;;;;0.10;0.10;;;10.10;99.90;;;;;;5006639;28;20113;-82
2024/01/18 03:21:06;;;;;;;0.10;0.10;;;10.10;99.90;;;;;;4985089;28;20058;-83
2024/01/18 03:23:31;;;;;;;0.22;0.22;;;10.20;99.90;;;;;;5009080;28;20030;-82
2024/01/18 03:25:57;;;;;;;0.10;0.10;;;10.20;99.90;;;;;;5009518;28;20029;-84
2024/01/18 03:28:22;;;;;;;0.00;0.00;;;10.20;99.90;;;;;;5006784;28;20034;-83
2024/01/18 03:30:48;;;;;;;0.00;0.00;;;10.20;99.90;;;;;;5010419;28;20104;-83
2024/01/18 03:33:14;;;;;;;0.10;0.10;;;10.20;99.90;;;;;;4996100;28;20037;-84
2024/01/18 03:35:41;;;;;;;0.00;0.00;;;10.10;99.90;;;;;;5002229;28;20056;-83
2024/01/18 03:38:07;;;;;;;0.68;0.30;;;10.10;99.90;;;;;;5000369;28;20145;-84
2024/01/18 03:40:33;;;;;;;0.00;0.00;;;10.10;99.90;;;;;;4999219;28;20533;-83
2024/01/18 03:42:58;;;;;;;0.08;0.08;;;10.10;99.90;;;;;;4977191;28;20025;-83
2024/01/18 03:45:24;;;;;;;0.03;0.03;;;10.10;99.90;;;;;;5002946;28;20033;-85
2024/01/18 03:47:50;;;;;;;0.00;0.00;;;10.00;99.90;;;;;;4986384;28;20022;-83
2024/01/18 03:50:17;;;;;;;0.00;0.00;;;10.10;99.90;;;;;;5006151;28;20053;-83
2024/01/18 03:52:43;;;;;;;0.00;0.00;;;10.10;99.90;;;;;;5009167;28;20102;-83
2024/01/18 03:55:08;;;;;;;0.10;0.10;;;10.10;99.90;;;;;;5007633;28;20026;-83
2024/01/18 03:57:35;;;;;;;0.00;0.00;;;10.00;99.90;;;;;;5004477;28;20037;-84
2024/01/18 04:00:02;;;;;;;0.00;0.00;;;10.00;99.90;;;;;;4983242;28;20715;-83
2024/01/18 04:02:27;;;;;;;0.00;0.00;;;10.10;99.90;;;;;;5006148;28;20037;-84
2024/01/18 04:04:53;;;;;;;0.08;0.08;;;10.10;99.90;;;;;;5004224;28;20026;-83
2024/01/18 04:07:19;;;;;;;0.00;0.00;;;10.00;99.90;;;;;;5005021;28;20029;-85
2024/01/18 04:09:45;;;;;;;0.10;0.10;;;10.00;99.90;;;;;;5010636;28;20041;-85
2024/01/18 04:12:11;;;;;;;0.00;0.00;;;10.00;99.90;;;;;;4999290;28;20033;-84
2024/01/18 04:14:39;;;;;;;0.10;0.10;;;10.00;99.90;;;;;;5003773;28;20997;-84
2024/01/18 04:17:04;;;;;;;0.00;0.00;;;10.00;99.90;;;;;;5004903;28;20084;-85
2024/01/18 04:19:30;;;;;;;0.00;0.00;;;10.00;99.90;;;;;;5004518;28;20055;-83
2024/01/18 04:21:55;;;;;;;0.00;0.00;;;10.00;99.90;;;;;;5004679;28;20393;-82
2024/01/18 04:24:21;;;;;;;0.10;0.10;;;10.10;99.90;;;;;;5005587;28;20851;-82
2024/01/18 04:26:49;;;;;;;0.10;0.10;;;10.10;99.90;;;;;;5004247;28;20044;-83
2024/01/18 04:29:15;;;;;;;0.10;0.10;;;10.20;99.90;;;;;;5004116;28;20088;-83
2024/01/18 04:31:40;;;;;;;0.10;0.10;;;10.20;99.90;;;;;;5011956;28;20026;-81
2024/01/18 04:34:06;;;;;;;0.00;0.00;;;10.20;99.90;;;;;;5004304;28;20057;-83
2024/01/18 04:36:32;;;;;;;0.00;0.00;;;10.20;99.90;;;;;;4987584;28;20068;-83
2024/01/18 04:38:57;;;;;;;0.00;0.00;;;10.20;99.90;;;;;;5010080;28;20072;-86
2024/01/18 04:41:23;;;;;;;0.00;0.00;;;10.10;99.90;;;;;;5010741;28;20037;-87
2024/01/18 04:43:49;;;;;;;0.10;0.10;;;10.20;99.90;;;;;;5005213;28;20397;-85
2024/01/18 04:46:14;;;;;;;0.00;0.00;;;10.20;99.90;;;;;;5007533;28;20029;-88
2024/01/18 04:48:40;;;;;;;0.00;0.00;;;10.10;99.90;;;;;;5007171;28;20080;-87
2024/01/18 04:51:06;;;;;;;0.10;0.10;;;10.20;99.90;;;;;;5003481;28;20025;-85
2024/01/18 04:53:31;;;;;;;0.08;0.08;;;10.10;99.90;;;;;;5003490;28;20041;-87
2024/01/18 04:55:57;;;;;;;0.00;0.00;;;10.20;99.90;;;;;;5002287;28;20033;-84
2024/01/18 04:58:23;;;;;;;0.10;0.10;;;10.00;99.90;;;;;;5003398;28;20040;-84
2024/01/18 05:00:49;;;;;;;0.00;0.00;;;10.00;99.90;;;;;;4996190;28;20465;-84
2024/01/18 05:03:15;;;;;;;0.10;0.10;;;10.00;99.90;;;;;;5010951;28;20037;-84
2024/01/18 05:05:41;;;;;;;0.00;0.00;;;9.90;99.90;;;;;;5004131;28;20037;-85
2024/01/18 05:08:07;;;;;;;0.00;0.00;;;9.80;99.90;;;;;;5003958;28;20029;-84
2024/01/18 05:10:33;;;;;;;0.00;0.00;;;9.80;99.90;;;;;;5007972;28;20045;-86
2024/01/18 05:12:59;;;;;;;0.00;0.00;;;9.70;99.90;;;;;;5010850;28;20033;-86
2024/01/18 05:15:25;;;;;;;0.10;0.10;;;9.60;99.90;;;;;;5001766;28;20034;-87
2024/01/18 05:17:51;;;;;;;0.10;0.10;;;9.60;99.90;;;;;;5006396;28;20022;-86
2024/01/18 05:20:17;;;;;;;0.10;0.10;;;9.50;99.90;;;;;;5003025;28;20131;-83
2024/01/18 05:22:43;;;;;;;0.10;0.10;;;9.50;99.90;;;;;;5000934;28;20272;-86
2024/01/18 05:25:09;;;;;;;0.03;0.03;;;9.50;99.90;;;;;;5001142;28;20038;-85
2024/01/18 05:27:36;;;;;;;0.00;0.00;;;9.50;99.90;;;;;;4983612;28;20271;-84
2024/01/18 05:30:07;;;;;;;0.10;0.10;;;9.40;99.90;;;;;;5001722;28;20042;-84
2024/01/18 05:32:32;;;;;;;0.10;0.10;;;9.40;99.90;;;;;;4997382;28;20080;-83
2024/01/18 05:34:59;;;;;;;0.00;0.00;;;9.40;99.90;;;;;;5013518;28;20033;-81
2024/01/18 05:37:25;;;;;;;0.03;0.03;;;9.30;99.90;;;;;;5005477;28;20026;-84
2024/01/18 05:39:51;;;;;;;0.10;0.10;;;9.30;99.90;;;;;;4998370;28;20488;-85
2024/01/18 05:42:18;;;;;;;0.10;0.10;;;9.30;99.90;;;;;;5009590;28;20034;-81
2024/01/18 05:44:46;;;;;;;0.00;0.00;;;9.20;99.90;;;;;;5002935;28;20030;-82
2024/01/18 05:47:11;;;;;;;0.10;0.10;;;9.30;99.90;;;;;;5001162;28;20119;-82
2024/01/18 05:49:37;;;;;;;0.10;0.10;;;9.30;99.90;;;;;;5004620;28;20669;-82
2024/01/18 05:52:03;;;;;;;0.03;0.03;;;9.30;99.90;;;;;;5003461;28;20045;-81
2024/01/18 05:54:29;;;;;;;0.00;0.00;;;9.30;99.90;;;;;;5002413;28;20030;-81
2024/01/18 05:56:54;;;;;;;0.00;0.00;;;9.20;99.90;;;;;;4998360;28;20030;-81
2024/01/18 05:59:20;;;;;;;0.10;0.10;;;9.20;99.90;;;;;;5000693;28;20069;-82
2024/01/18 06:01:46;;;;;;;0.10;0.10;;;9.20;99.90;;;;;;4995405;28;20112;-81
2024/01/18 06:04:11;;;;;;;0.10;0.10;;;9.20;99.90;;;;;;5001349;28;20038;-81
2024/01/18 06:06:37;;;;;;;0.10;0.10;;;9.20;99.90;;;;;;4998625;28;20030;-81
2024/01/18 06:09:03;;;;;;;0.00;0.00;;;9.20;99.90;;;;;;5002525;28;20041;-82
2024/01/18 06:11:28;;;;;;;0.00;0.00;;;9.20;99.90;;;;;;5002376;28;20037;-81
2024/01/18 06:13:54;;;;;;;0.00;0.00;;;9.30;99.90;;;;;;5002016;28;20036;-82
2024/01/18 06:16:20;;;;;;;0.03;0.03;;;9.20;99.90;;;;;;4999660;28;20033;-83
2024/01/18 06:18:45;;;;;;;0.00;0.00;;;9.30;99.90;;;;;;5001649;28;20564;-82
2024/01/18 06:21:11;;;;;;;0.00;0.00;;;9.20;99.90;;;;;;5002228;28;20062;-83
2024/01/18 06:23:37;;;;;;;0.00;0.00;;;9.20;99.90;;;;;;4998377;28;20475;-89
2024/01/18 06:26:07;;;;;;;0.00;0.00;;;9.20;99.90;;;;;;5008321;28;20090;-87
2024/01/18 06:28:33;;;;;;;0.00;0.00;;;9.20;99.90;;;;;;5005157;28;20026;-88
2024/01/18 06:30:58;;;;;;;0.10;0.10;;;9.30;99.90;;;;;;5005271;28;20075;-91
2024/01/18 06:33:26;;;;;;;0.03;0.03;;;9.30;99.90;;;;;;5005888;28;20034;-93
2024/01/18 06:35:52;;;;;;;0.00;0.00;;;9.30;99.90;;;;;;5003365;28;20026;-87
2024/01/18 06:38:20;;;;;;;0.00;0.00;;;9.40;99.90;;;;;;5006677;28;20559;-87
2024/01/18 06:40:47;;;;;;;0.03;0.03;;;9.40;99.90;;;;;;4985353;28;20517;-89
2024/01/18 06:43:13;;;;;;;0.10;0.10;;;9.40;99.90;;;;;;5008726;28;20572;-85
2024/01/18 06:45:38;;;;;;;0.00;0.00;;;9.40;99.90;;;;;;5006307;28;20029;-88
2024/01/18 06:48:04;;;;;;;0.00;0.00;;;9.40;99.90;;;;;;5002353;28;20033;-88
2024/01/18 06:50:30;;;;;;;0.10;0.10;;;9.40;99.90;;;;;;5007103;28;20021;-83
2024/01/18 06:52:57;;;;;;;0.00;0.00;;;9.30;99.90;;;;;;4993345;28;20114;-86
2024/01/18 06:55:23;;;;;;;0.10;0.10;;;9.30;99.90;;;;;;4994671;28;20049;-86
2024/01/18 06:57:49;;;;;;;0.10;0.10;;;9.30;99.90;;;;;;4997666;28;20041;-86
2024/01/18 07:00:19;;;;;;;0.00;0.00;;;9.20;99.90;;;;;;4992027;28;20069;-86
2024/01/18 07:02:50;;;;;;;0.00;0.00;;;9.20;99.90;;;;;;4995500;28;20076;-85
2024/01/18 07:05:16;;;;;;;0.05;0.05;;;9.20;99.90;;;;;;5000075;28;20029;-86
2024/01/18 07:07:42;;;;;;;0.00;0.00;;;9.20;99.90;;;;;;5001761;28;20032;-84
2024/01/18 07:10:08;;;;;;;0.00;0.00;;;9.20;99.90;;;;;;4998383;28;20038;-83
2024/01/18 07:12:34;;;;;;;0.00;0.00;;;9.20;99.90;;;;;;4994462;28;20034;-84
2024/01/18 07:15:00;;;;;;;0.00;0.00;;;9.20;99.90;;;;;;4999883;28;20508;-86
2024/01/18 07:17:29;;;;;;;0.00;0.00;;;9.30;99.90;;;;;;4999231;28;20084;-85
2024/01/18 07:19:58;;;;;;;0.00;0.00;;;9.30;99.90;;;;;;4991079;28;20836;-86
2024/01/18 07:22:25;;;;;;;0.10;0.10;;;9.30;99.90;;;;;;5000801;28;20034;-87
2024/01/18 07:24:51;;;;;;;0.00;0.00;;;9.40;99.90;;;;;;5000976;28;20028;-87
2024/01/18 07:27:17;;;;;;;0.00;0.00;;;9.40;99.90;;;;;;4994395;28;20112;-87
2024/01/18 07:29:43;;;;;;;0.10;0.10;;;9.40;99.90;;;;;;4999407;28;20261;-89
2024/01/18 07:32:08;;;;;;;0.10;0.10;;;9.40;99.90;;;;;;4996037;28;20033;-86
2024/01/18 07:34:34;;;;;;;0.00;0.00;;;9.40;99.90;;;;;;5001972;28;20573;-89
2024/01/18 07:37:00;;;;;;;0.10;0.10;;;9.40;99.90;;;;;;5002242;28;20560;-87
2024/01/18 07:39:27;;;;;;;0.10;0.10;;;9.40;99.90;;;;;;5001617;28;20322;-87
2024/01/18 07:41:53;;;;;;;0.00;0.00;;;9.40;99.90;;;;;;4997834;28;20045;-88
2024/01/18 07:44:19;;;;;;;0.10;0.10;;;9.40;99.90;;;;;;4997586;28;20022;-89
2024/01/18 07:46:44;;;;;;;0.10;0.10;;;9.40;99.90;;;;;;4982690;28;20176;-88
2024/01/18 07:49:10;;;;;;;0.10;0.10;;;9.50;99.90;;;;;;4980727;28;20050;-88
2024/01/18 07:51:36;;;;;;;0.10;0.10;;;9.50;99.90;;;;;;4995201;28;20022;-86
2024/01/18 07:54:03;;;;;;;0.05;0.05;;;9.50;99.90;;;;;;4983976;28;21030;-86
2024/01/18 07:56:28;;;;;;;;;;;9.50;99.90;;;;;;4984783;28;20133;-87
2024/01/18 07:58:56;;;;;;;0.07;0.07;;;9.50;99.90;;;;;;4991657;28;20008;-88
2024/01/18 08:01:22;;;;;;;0.00;0.00;;;9.60;99.90;;;;;;4978078;28;20183;-85
2024/01/18 08:03:48;;;;;;;0.10;0.10;;;9.70;99.90;;;;;;5004433;28;20823;-88
2024/01/18 08:06:14;;;;;;;0.00;0.00;;;9.70;99.90;;;;;;5003673;28;20039;-86
2024/01/18 08:08:40;;;;;;;0.00;0.00;;;9.70;99.90;;;;;;5003852;28;20389;-89
2024/01/18 08:11:13;;;;;;;0.10;0.10;;;9.70;99.90;;;;;;5004487;28;20105;-87
2024/01/18 08:13:40;;;;;;;0.10;0.10;;;9.90;99.90;;;;;;4996946;28;20026;-87
2024/01/18 08:16:07;;;;;;;;;;;10.00;99.90;;;;;;4995276;28;20033;-88
2024/01/18 08:18:33;;;;;;;0.10;0.10;;;10.00;99.90;;;;;;5002107;28;19917;-87
2024/01/18 08:20:59;;;;;;;0.10;0.10;;;9.90;99.90;;;;;;4997838;28;20573;-85
2024/01/18 08:23:25;;;;;;;0.10;0.10;;;9.80;99.90;;;;;;5002299;28;20401;-88
2024/01/18 08:25:51;;;;;;;0.00;0.00;;;9.90;99.90;;;;;;5003265;28;20044;-85
2024/01/18 08:28:18;;;;;;;0.10;0.10;;;9.90;99.90;;;;;;4995902;28;20038;-88
2024/01/18 08:30:44;;;;;;;0.10;0.10;;;9.90;99.90;;;;;;5001123;28;20037;-86
2024/01/18 08:33:10;;;;;;;0.00;0.00;;;10.00;99.90;;;;;;5002300;28;20509;-87
2024/01/18 08:35:37;;;;;;;0.10;0.10;;;10.00;99.90;;;;;;4999756;28;20034;-86
2024/01/18 08:38:03;;;;;;;0.00;0.00;;;10.10;99.90;;;;;;4999134;28;20033;-88
2024/01/18 08:40:29;;;;;;;0.07;0.07;;;10.00;99.90;;;;;;5001730;28;20052;-86
2024/01/18 08:42:56;;;;;;;0.10;0.10;;;10.00;99.90;;;;;;4995440;28;20789;-86
2024/01/18 08:45:22;;;;;;;0.10;0.10;;;10.00;99.90;;;;;;5002826;28;20153;-87
2024/01/18 08:47:48;;;;;;;0.03;0.03;;;10.00;99.90;;;;;;5002534;28;20030;-87
2024/01/18 08:50:16;;;;;;;0.00;0.00;;;9.90;99.90;;;;;;4985778;28;20595;-85
2024/01/18 08:52:43;;;;;;;0.00;0.00;;;10.00;99.90;;;;;;4996525;28;20018;-88
2024/01/18 08:55:08;;;;;;;0.00;0.00;;;10.00;99.90;;;;;;5002193;28;20025;-86
2024/01/18 08:57:34;;;;;;;0.10;0.10;;;10.00;99.90;;;;;;5002909;28;20032;-87
2024/01/18 09:00:00;;;;;;;0.10;0.10;;;10.00;99.90;;;;;;4995479;28;20030;-88
2024/01/18 09:02:26;;;;;;;0.10;0.10;;;10.00;99.90;;;;;;5003525;28;20300;-86
2024/01/18 09:04:52;;;;;;;0.08;0.08;;;10.00;99.90;;;;;;4978181;28;20447;-85
2024/01/18 09:07:18;;;;;;;0.00;0.00;;;10.00;99.90;;;;;;5001922;28;20121;-89
2024/01/18 09:09:45;;;;;;;0.00;0.00;;;10.00;99.90;;;;;;4990468;28;20847;-87
2024/01/18 09:12:13;;;;;;;0.00;0.00;;;10.00;99.90;;;;;;5002524;28;20875;-87
2024/01/18 09:14:39;;;;;;;0.03;0.03;;;10.00;99.90;;;;;;4993229;28;20065;-87
2024/01/18 09:17:05;;;;;;;0.10;0.10;;;10.00;99.90;;;;;;4998989;28;20029;-87
2024/01/18 09:19:30;;;;;;;0.10;0.10;;;10.00;99.90;;;;;;4997255;28;20061;-86
2024/01/18 09:21:57;;;;;;;0.00;0.00;;;10.10;99.90;;;;;;5003063;28;20084;-86
2024/01/18 09:24:23;;;;;;;0.10;0.10;;;10.00;99.90;;;;;;5003697;28;20030;-85
2024/01/18 09:26:49;;;;;;;0.03;0.03;;;10.00;99.90;;;;;;5000700;28;20109;-89
2024/01/18 09:29:14;;;;;;;0.00;0.00;;;10.00;99.90;;;;;;5000288;28;20113;-88
2024/01/18 09:31:40;;;;;;;0.00;0.00;;;10.00;99.90;;;;;;4999729;28;20026;-86
2024/01/18 09:34:06;;;;;;;0.00;0.00;;;10.10;99.90;;;;;;5001538;28;20057;-87
2024/01/18 09:36:32;;;;;;;0.03;0.03;;;10.10;99.90;;;;;;4998818;28;20018;-86
2024/01/18 09:38:57;;;;;;;0.35;0.35;;;10.10;99.90;;;;;;4997774;28;20776;-87
2024/01/18 09:41:26;;;;;;;0.10;0.10;;;10.10;99.90;;;;;;4996981;28;20117;-88
2024/01/18 09:43:57;;;;;;;0.10;0.10;;;10.10;99.90;;;;;;4996945;28;20030;-84
2024/01/18 09:46:23;;;;;;;0.28;0.28;;;10.20;99.90;;;;;;4996499;28;20034;-87
2024/01/18 09:48:49;;;;;;;0.10;0.10;;;10.20;99.90;;;;;;4995167;28;20022;-87
2024/01/18 09:51:15;;;;;;;0.00;0.00;;;10.20;99.90;;;;;;4997781;28;20050;-87
2024/01/18 09:53:48;;;;;;;0.00;0.00;;;10.20;99.90;;;;;;4991888;28;20030;-88
2024/01/18 09:56:29;;;;;;;0.00;0.00;;;10.30;99.90;;;;;;4989108;28;20038;-87
2024/01/18 09:58:59;;;;;;;0.00;0.00;;;10.40;99.90;;;;;;4989847;28;20018;-86
2024/01/18 10:01:25;;;;;;;0.10;0.10;;;10.40;99.90;;;;;;4995793;28;20029;-86
2024/01/18 10:03:51;;;;;;;0.07;0.07;;;10.30;99.90;;;;;;5001956;28;20026;-87
2024/01/18 10:06:18;;;;;;;0.10;0.10;;;10.30;99.90;;;;;;4994096;28;20264;-87
2024/01/18 10:08:47;;;;;;;0.00;0.00;;;10.30;99.90;;;;;;4998364;28;20029;-87
2024/01/18 10:11:12;;;;;;;0.10;0.10;;;10.30;99.90;;;;;;4995773;28;20092;-86
2024/01/18 10:13:51;;;;;;;0.00;0.00;;;10.30;99.90;;;;;;4993149;28;20045;-88
2024/01/18 10:16:33;;;;;;;0.00;0.00;;;10.30;99.90;;;;;;4995695;28;20670;-89
2024/01/18 10:19:03;;;;;;;0.10;0.10;;;10.30;99.90;;;;;;4997354;28;20203;-84
2024/01/18 10:21:31;;;;;;;0.08;0.08;;;10.30;99.90;;;;;;4997611;28;20054;-88
2024/01/18 10:23:57;;;;;;;0.10;0.10;;;10.30;99.90;;;;;;4997807;28;20477;-89
2024/01/18 10:26:29;;;;;;;0.05;0.05;;;10.30;99.90;;;;;;4997918;28;20031;-88
2024/01/18 10:28:55;;;;;;;0.00;0.00;;;10.30;99.90;;;;;;4998629;28;20026;-87
2024/01/18 10:31:21;;;;;;;0.35;0.35;;;10.20;99.90;;;;;;5002216;28;20085;-85
2024/01/18 10:33:47;;;;;;;0.00;0.00;;;10.30;99.90;;;;;;5001302;28;20044;-89
2024/01/18 10:36:13;;;;;;;0.10;0.10;;;10.30;99.90;;;;;;5001186;28;20027;-87
2024/01/18 10:38:39;;;;;;;0.00;0.00;;;10.30;99.90;;;;;;4998325;28;20489;-87
2024/01/18 10:41:06;;;;;;;0.10;0.10;;;10.40;99.90;;;;;;4999151;28;20746;-88
2024/01/18 10:43:32;;;;;;;;;;;10.30;99.90;;;;;;4996913;28;20030;-87
2024/01/18 10:45:58;;;;;;;0.10;0.10;;;10.40;99.90;;;;;;5001345;28;19913;-88
2024/01/18 10:48:25;;;;;;;0.10;0.10;;;10.30;99.90;;;;;;4996784;28;20099;-88
2024/01/18 10:50:58;;;;;;;0.00;0.00;;;10.40;99.90;;;;;;4997004;28;20064;-87
2024/01/18 10:53:25;;;;;;;0.00;0.00;;;10.30;99.90;;;;;;4993109;28;20030;-87
2024/01/18 10:55:52;;;;;;;0.10;0.10;;;10.30;99.90;;;;;;4999654;28;20624;-87
2024/01/18 10:58:21;;;;;;;0.00;0.00;;;10.30;99.90;;;;;;5001956;28;20030;-87
2024/01/18 11:00:47;;;;;;;0.10;0.10;;;10.30;99.90;;;;;;4993314;28;20038;-89
2024/01/18 11:03:14;;;;;;;0.00;0.00;;;10.00;99.90;;;;;;5000636;28;20045;-90
2024/01/18 11:05:41;;;;;;;0.00;0.00;;;10.00;99.90;;;;;;5001039;28;20731;-88
2024/01/18 11:08:07;;;;;;;;;;;10.00;99.90;;;;;;5000769;28;20022;-88
2024/01/18 11:10:34;;;;;;;0.00;0.00;;;10.10;99.90;;;;;;4999392;28;19916;-91
2024/01/18 11:13:01;;;;;;;0.10;0.10;;;10.10;99.90;;;;;;4994545;28;20080;-90
2024/01/18 11:15:27;;;;;;;0.10;0.10;;;10.10;99.90;;;;;;5000868;28;20022;-87
2024/01/18 11:17:54;;;;;;;0.00;0.00;;;10.10;99.90;;;;;;5000463;28;20107;-88
2024/01/18 11:20:20;;;;;;;0.00;0.00;;;10.00;99.90;;;;;;5000842;28;20053;-91
2024/01/18 11:22:46;;;;;;;0.00;0.00;;;10.10;99.90;;;;;;4995364;28;20083;-89
2024/01/18 11:25:17;;;;;;;0.00;0.00;;;10.10;99.90;;;;;;4995248;28;20038;-89
2024/01/18 11:27:43;;;;;;;0.10;0.10;;;10.00;99.90;;;;;;5001698;28;20048;-89
2024/01/18 11:30:31;;;;;;;0.00;0.00;;;10.00;99.90;;;;;;5000540;28;20038;-89
2024/01/18 11:32:57;;;;;;;0.10;0.10;;;10.00;99.90;;;;;;5000215;28;20093;-90
2024/01/18 11:35:24;;;;;;;0.00;0.00;;;10.00;99.90;;;;;;5004874;28;20537;-86
2024/01/18 11:37:50;;;;;;;0.10;0.10;;;10.00;99.90;;;;;;5001159;28;20030;-89
2024/01/18 11:40:17;;;;;;;0.10;0.10;;;10.00;99.90;;;;;;5005090;28;20030;-87
2024/01/18 11:42:45;;;;;;;0.00;0.00;;;10.10;99.90;;;;;;5005122;28;20136;-87
2024/01/18 11:45:16;;;;;;;0.10;0.10;;;10.10;99.90;;;;;;5002892;28;20034;-85
2024/01/18 11:47:43;;;;;;;0.10;0.10;;;10.20;99.90;;;;;;4983392;28;20113;-90
2024/01/18 11:50:11;;;;;;;0.10;0.10;;;10.30;99.90;;;;;;5003737;28;20026;-86
2024/01/18 11:52:41;;;;;;;0.10;0.10;;;10.50;99.90;;;;;;4998144;28;20053;-89
2024/01/18 11:55:08;;;;;;;0.10;0.10;;;10.30;99.90;;;;;;4986886;28;20149;-90
2024/01/18 11:57:34;;;;;;;0.10;0.10;;;10.20;99.90;;;;;;4994466;28;20026;-88
2024/01/18 12:00:00;;;;;;;0.05;0.05;;;10.20;99.90;;;;;;4997428;28;20035;-88
2024/01/18 12:02:29;;;;;;;0.10;0.10;;;10.30;99.90;;;;;;5000568;28;20037;-85
2024/01/18 12:04:55;;;;;;;0.28;0.28;;;10.30;99.90;;;;;;5002811;28;20026;-88
2024/01/18 12:07:24;;;;;;;0.00;0.00;;;10.30;99.90;;;;;;5003263;28;20092;-85
2024/01/18 12:09:50;;;;;;;0.00;0.00;;;10.20;99.90;;;;;;5002285;28;20041;-86
2024/01/18 12:12:17;;;;;;;0.22;0.22;;;10.30;99.90;;;;;;5003221;28;20110;-87
2024/01/18 12:14:45;;;;;;;0.10;0.10;;;10.20;99.90;;;;;;4984592;28;20042;-88
2024/01/18 12:17:12;;;;;;;0.10;0.10;;;10.20;99.90;;;;;;4996134;28;20029;-88
2024/01/18 12:19:40;;;;;;;0.10;0.10;;;10.20;99.90;;;;;;4992228;28;20340;-88
2024/01/18 12:22:09;;;;;;;0.10;0.10;;;10.20;99.90;;;;;;5001668;28;20040;-87
2024/01/18 12:24:36;;;;;;;0.00;0.00;;;10.10;99.90;;;;;;4995378;28;20033;-89
2024/01/18 12:27:02;;;;;;;1.08;0.45;;;10.30;99.90;;;;;;4986332;28;20025;-86
2024/01/18 12:29:30;;;;;;;0.10;0.10;;;10.60;99.90;;;;;;5003587;28;20041;-87
2024/01/18 12:31:56;;;;;;;0.00;0.00;;;10.50;99.90;;;;;;4995372;28;20028;-87
2024/01/18 12:34:23;;;;;;;0.10;0.10;;;10.40;99.90;;;;;;5000201;28;20030;-87
2024/01/18 12:36:48;;;;;;;;;;;10.40;99.90;;;;;;4987246;28;20097;-85
2024/01/18 12:39:19;;;;;;;0.10;0.10;;;10.50;99.90;;;;;;4999553;28;20444;-87
2024/01/18 12:41:45;;;;;;;0.00;0.00;;;10.50;99.90;;;;;;5001225;28;20295;-87
2024/01/18 12:44:12;;;;;;;0.08;0.08;;;10.40;99.90;;;;;;5001066;28;20103;-85
2024/01/18 12:46:39;;;;;;;0.10;0.10;;;10.30;99.90;;;;;;4982792;28;20088;-86